createdAt,value
2022-10-07T00:01:53.000Z,15.27
2022-10-07T00:06:51.869Z,15.24
2022-10-07T00:11:51.978Z,15.18
2022-10-07T00:16:50.744Z,15.14
2022-10-07T00:21:49.488Z,15.12
2022-10-07T00:26:48.200Z,15.09
2022-10-07T00:31:48.307Z,15.07
2022-10-07T00:36:50.170Z,15.04
2022-10-07T00:41:51.336Z,14.97
2022-10-07T00:46:52.352Z,14.95
2022-10-07T00:51:53.145Z,14.86
2022-10-07T00:56:53.681Z,14.76
2022-10-07T01:01:53.793Z,14.59
2022-10-07T01:06:52.580Z,14.56
2022-10-07T01:11:59.151Z,14.43
2022-10-07T01:17:06.004Z,14.38
2022-10-07T01:22:17.762Z,14.32
2022-10-07T01:27:20.109Z,14.29
2022-10-07T01:32:27.007Z,14.23
2022-10-07T01:37:29.734Z,14.16
2022-10-07T01:42:30.892Z,14.10
2022-10-07T01:47:30.180Z,14.08
2022-10-07T01:52:45.146Z,14.00
2022-10-07T01:57:54.488Z,13.88
2022-10-07T02:03:26.262Z,13.89
2022-10-07T02:08:33.801Z,13.90
2022-10-07T02:13:39.526Z,13.90
2022-10-07T02:18:45.401Z,13.89
2022-10-07T02:23:47.642Z,13.86
2022-10-07T02:28:50.729Z,13.80
2022-10-07T02:33:53.275Z,13.79
2022-10-07T02:38:53.769Z,13.84
2022-10-07T02:43:59.481Z,13.89
2022-10-07T02:49:00.798Z,13.93
2022-10-07T02:54:03.490Z,13.95
2022-10-07T02:59:07.116Z,13.84
2022-10-07T03:04:07.325Z,13.75
2022-10-07T03:09:07.038Z,13.68
2022-10-07T03:14:07.897Z,13.67
2022-10-07T03:19:07.317Z,13.67
2022-10-07T03:24:14.317Z,13.61
2022-10-07T03:29:18.907Z,13.54
2022-10-07T03:34:18.246Z,13.50
2022-10-07T03:39:19.682Z,13.43
2022-10-07T03:44:22.562Z,13.35
2022-10-07T03:49:22.765Z,13.30
2022-10-07T03:54:21.738Z,13.27
2022-10-07T03:59:22.147Z,13.26
2022-10-07T04:04:22.162Z,13.26
2022-10-07T04:09:21.011Z,13.26
2022-10-07T04:14:26.896Z,13.27
2022-10-07T04:19:28.105Z,13.29
2022-10-07T04:24:27.271Z,13.26
2022-10-07T04:29:28.883Z,13.38
2022-10-07T04:34:27.798Z,13.41
2022-10-07T04:39:42.838Z,13.37
2022-10-07T04:44:47.071Z,13.24
2022-10-07T04:49:46.229Z,13.20
2022-10-07T04:54:45.075Z,13.18
2022-10-07T04:59:43.819Z,13.11
2022-10-07T05:04:50.255Z,13.05
2022-10-07T05:09:49.695Z,13.08
2022-10-07T05:14:48.484Z,13.05
2022-10-07T05:19:50.075Z,12.97
2022-10-07T05:24:48.879Z,12.96
2022-10-07T05:29:47.799Z,13.03
2022-10-07T05:34:46.843Z,13.03
2022-10-07T05:39:47.490Z,13.05
2022-10-07T05:44:50.606Z,13.11
2022-10-07T05:49:51.091Z,13.08
2022-10-07T05:54:51.999Z,13.11
2022-10-07T05:59:52.897Z,13.21
2022-10-07T06:04:53.520Z,13.27
2022-10-07T06:10:11.317Z,13.20
2022-10-07T06:15:12.280Z,13.21
2022-10-07T06:20:15.249Z,13.14
2022-10-07T06:25:16.789Z,13.25
2022-10-07T06:30:17.142Z,13.25
2022-10-07T06:35:16.129Z,13.38
2022-10-07T06:40:16.675Z,13.55
2022-10-07T06:45:15.899Z,13.68
2022-10-07T06:50:15.206Z,13.73
2022-10-07T06:55:17.670Z,13.88
2022-10-07T07:00:16.915Z,14.03
2022-10-07T07:05:17.230Z,14.21
2022-10-07T07:10:19.386Z,14.24
2022-10-07T07:15:23.121Z,14.59
2022-10-07T07:20:22.075Z,14.86
2022-10-07T07:25:22.783Z,14.89
2022-10-07T07:30:24.399Z,14.96
2022-10-07T07:35:25.563Z,15.12
2022-10-07T07:40:26.416Z,15.33
2022-10-07T07:45:26.490Z,15.52
2022-10-07T07:50:27.318Z,15.69
2022-10-07T07:55:29.494Z,15.83
2022-10-07T08:00:28.432Z,16.08
2022-10-07T08:05:36.046Z,16.21
2022-10-07T08:10:37.250Z,16.51
2022-10-07T08:15:36.176Z,16.74
2022-10-07T08:20:36.044Z,17.01
2022-10-07T08:25:37.873Z,17.30
2022-10-07T08:30:38.657Z,17.42
2022-10-07T08:35:37.973Z,17.79
2022-10-07T08:40:38.559Z,18.04
2022-10-07T08:45:37.421Z,18.39
2022-10-07T08:50:47.216Z,19.16
2022-10-07T08:55:51.680Z,19.97
2022-10-07T09:00:56.967Z,20.92
2022-10-07T09:05:57.554Z,21.95
2022-10-07T09:11:15.845Z,22.83
2022-10-07T09:16:19.616Z,23.73
2022-10-07T09:21:23.637Z,24.53
2022-10-07T09:26:24.077Z,25.64
2022-10-07T09:31:26.161Z,26.76
2022-10-07T09:36:26.279Z,27.88
2022-10-07T09:41:32.070Z,28.71
2022-10-07T09:46:37.573Z,29.39
2022-10-07T09:51:36.368Z,30.09
2022-10-07T09:56:39.599Z,30.40
2022-10-07T10:01:41.900Z,30.78
2022-10-07T10:06:47.264Z,31.22
2022-10-07T10:11:47.742Z,31.52
2022-10-07T10:16:47.743Z,31.89
2022-10-07T10:21:53.104Z,32.36
2022-10-07T10:27:07.429Z,33.03
2022-10-07T10:32:25.405Z,33.40
2022-10-07T10:37:34.011Z,33.81
2022-10-07T10:42:48.692Z,33.85
2022-10-07T10:48:03.437Z,34.17
2022-10-07T10:53:15.012Z,32.67
2022-10-07T10:58:28.063Z,32.43
2022-10-07T11:03:51.607Z,32.33
2022-10-07T11:08:52.852Z,31.73
2022-10-07T11:13:57.850Z,31.40
2022-10-07T11:18:59.327Z,30.96
2022-10-07T11:24:04.896Z,31.16
2022-10-07T11:29:13.944Z,31.84
2022-10-07T11:34:18.602Z,32.33
2022-10-07T11:39:17.391Z,32.78
2022-10-07T11:44:23.648Z,33.19
2022-10-07T11:49:29.645Z,33.94
2022-10-07T11:54:32.919Z,34.34
2022-10-07T11:59:46.047Z,34.80
2022-10-07T12:04:44.774Z,34.91
2022-10-07T12:09:57.221Z,34.21
2022-10-07T12:15:04.725Z,33.70
2022-10-07T12:20:45.256Z,33.46
2022-10-07T12:25:47.013Z,33.68
2022-10-07T12:30:53.914Z,33.93
2022-10-07T12:35:54.539Z,33.80
2022-10-07T12:41:03.539Z,33.92
2022-10-07T12:46:07.461Z,33.09
2022-10-07T12:51:13.777Z,33.98
2022-10-07T12:56:21.114Z,31.57
2022-10-07T13:01:32.910Z,31.41
2022-10-07T13:07:03.515Z,31.18
2022-10-07T13:12:14.044Z,31.64
2022-10-07T13:17:30.823Z,31.82
2022-10-07T13:22:31.515Z,31.13
2022-10-07T13:27:34.786Z,31.54
2022-10-07T13:32:36.460Z,30.89
2022-10-07T13:37:37.238Z,30.85
2022-10-07T13:42:38.363Z,31.45
2022-10-07T13:47:38.432Z,31.18
2022-10-07T13:52:40.993Z,31.72
2022-10-07T13:57:44.324Z,31.45
2022-10-07T14:02:45.304Z,31.42
2022-10-07T14:07:44.297Z,32.09
2022-10-07T14:12:46.415Z,32.00
2022-10-07T14:17:49.735Z,31.44
2022-10-07T14:22:51.283Z,31.47
2022-10-07T14:28:07.770Z,32.48
2022-10-07T14:33:31.315Z,32.40
2022-10-07T14:38:30.337Z,31.98
2022-10-07T14:43:31.937Z,31.46
2022-10-07T14:48:32.200Z,31.91
2022-10-07T14:53:31.126Z,32.26
2022-10-07T14:58:29.888Z,31.68
2022-10-07T15:03:29.525Z,31.43
2022-10-07T15:08:30.322Z,30.63
2022-10-07T15:13:29.279Z,30.04
2022-10-07T15:18:27.941Z,29.93
2022-10-07T15:23:28.460Z,29.60
2022-10-07T15:28:29.642Z,29.22
2022-10-07T15:33:28.630Z,28.81
2022-10-07T15:38:27.916Z,28.48
2022-10-07T15:43:28.459Z,27.89
2022-10-07T15:48:28.698Z,26.97
2022-10-07T15:53:27.406Z,26.41
2022-10-07T15:58:30.478Z,25.97
2022-10-07T16:03:33.555Z,25.54
2022-10-07T16:08:33.047Z,25.25
2022-10-07T16:13:36.767Z,25.10
2022-10-07T16:18:37.114Z,24.98
2022-10-07T16:23:37.562Z,24.88
2022-10-07T16:28:57.871Z,24.71
2022-10-07T16:33:57.088Z,24.52
2022-10-07T16:38:59.748Z,24.38
2022-10-07T16:44:01.232Z,24.24
2022-10-07T16:49:00.762Z,23.96
2022-10-07T16:54:02.993Z,23.74
2022-10-07T16:59:06.320Z,23.51
2022-10-07T17:04:05.318Z,23.39
2022-10-07T17:09:05.390Z,23.31
2022-10-07T17:14:07.590Z,23.22
2022-10-07T17:19:07.346Z,23.08
2022-10-07T17:24:06.551Z,22.93
2022-10-07T17:29:08.831Z,22.82
2022-10-07T17:34:08.498Z,22.70
2022-10-07T17:39:07.740Z,22.57
2022-10-07T17:44:10.473Z,22.44
2022-10-07T17:49:11.638Z,22.36
2022-10-07T17:54:12.487Z,22.27
2022-10-07T17:59:12.672Z,22.11
2022-10-07T18:04:14.979Z,22.02
2022-10-07T18:09:18.284Z,21.92
2022-10-07T18:14:36.073Z,21.85
2022-10-07T18:19:35.058Z,21.76
2022-10-07T18:24:33.928Z,21.67
2022-10-07T18:29:36.143Z,21.60
2022-10-07T18:34:34.766Z,21.42
2022-10-07T18:39:33.387Z,21.40
2022-10-07T18:44:33.892Z,21.34
2022-10-07T18:49:32.656Z,21.25
2022-10-07T18:54:31.319Z,21.16
2022-10-07T18:59:30.058Z,21.10
2022-10-07T19:04:31.001Z,21.04
2022-10-07T19:09:30.211Z,20.96
2022-10-07T19:14:32.204Z,20.91
2022-10-07T19:19:34.260Z,20.81
2022-10-07T19:24:46.801Z,20.72
2022-10-07T19:29:45.446Z,20.61
2022-10-07T19:34:45.507Z,20.55
2022-10-07T19:39:44.211Z,20.49
2022-10-07T19:44:43.371Z,20.46
2022-10-07T19:49:42.138Z,20.40
2022-10-07T19:54:45.859Z,20.34
2022-10-07T19:59:49.704Z,20.24
2022-10-07T20:04:49.071Z,20.20
2022-10-07T20:09:49.341Z,20.16
2022-10-07T20:14:48.040Z,20.04
2022-10-07T20:19:46.749Z,19.98
2022-10-07T20:24:45.453Z,19.93
2022-10-07T20:29:58.206Z,19.90
2022-10-07T20:34:56.920Z,19.85
2022-10-07T20:40:12.834Z,19.79
2022-10-07T20:45:12.866Z,19.75
2022-10-07T20:50:11.898Z,19.69
2022-10-07T20:55:14.185Z,19.63
2022-10-07T21:00:17.184Z,19.50
2022-10-07T21:05:16.002Z,19.42
2022-10-07T21:10:14.863Z,19.34
2022-10-07T21:15:15.067Z,19.28
2022-10-07T21:20:13.866Z,19.19
2022-10-07T21:25:13.107Z,19.12
2022-10-07T21:30:12.581Z,19.08
2022-10-07T21:35:12.688Z,19.04
2022-10-07T21:40:11.635Z,19.01
2022-10-07T21:45:11.229Z,18.96
2022-10-07T21:50:11.351Z,18.94
2022-10-07T21:55:11.763Z,18.93
2022-10-07T22:00:12.370Z,18.93
2022-10-07T22:05:11.687Z,18.88
2022-10-07T22:10:12.085Z,18.88
2022-10-07T22:15:12.013Z,18.89
2022-10-07T22:20:11.045Z,18.89
2022-10-07T22:25:11.301Z,18.88
2022-10-07T22:30:11.340Z,18.82
2022-10-07T22:35:30.324Z,18.78
2022-10-07T22:40:30.553Z,18.75
2022-10-07T22:45:29.251Z,18.66
2022-10-07T22:50:27.896Z,18.63
2022-10-07T22:55:27.218Z,18.57
2022-10-07T23:00:27.395Z,18.51
2022-10-07T23:05:26.139Z,18.39
2022-10-07T23:10:24.782Z,18.19
2022-10-07T23:15:23.536Z,18.11
2022-10-07T23:20:25.665Z,18.10
2022-10-07T23:25:26.397Z,18.03
2022-10-07T23:30:25.197Z,17.94
2022-10-07T23:35:25.327Z,17.76
2022-10-07T23:40:24.135Z,17.49
2022-10-07T23:45:22.741Z,17.47
2022-10-07T23:50:22.211Z,17.45
2022-10-07T23:55:22.413Z,17.44
